Time;durP1;ratioP1;P1;durP2;ratioP2;P2;SDS_P1;SDS_P2;PMS_P1;PMS_P2;Temp;Humidity;BMP_temperature;BMP_pressure;BME280_temperature;BME280_humidity;BME280_pressure;Samples;Min_cycle;Max_cycle;Signal;HPM_P1;HPM_P2
2023/07/06 00:00:33;;;;;;;;;;;;;;;16.76;53.00;101028.78;4162933;28;20015;-67
2023/07/06 00:02:36;;;;;;;;;;;;;;;16.78;53.41;101025.84;4163515;28;20367;-67
2023/07/06 00:04:38;;;;;;;;;;;;;;;16.81;53.33;101028.97;4163305;28;20012;-66
2023/07/06 00:06:40;;;;;;;;;;;;;;;16.83;53.82;101028.75;4164443;28;20009;-65
2023/07/06 00:08:42;;;;;;;;;;;;;;;16.83;53.97;101029.59;4163814;28;20024;-66
2023/07/06 00:10:45;;;;;;;;;;;;;;;16.84;54.52;101035.91;4163283;28;20015;-66
2023/07/06 00:12:47;;;;;;;;;;;;;;;16.82;54.24;101036.13;4163127;28;20025;-66
2023/07/06 00:14:50;;;;;;;;;;;;;;;16.76;54.74;101028.78;4162483;28;20029;-66
2023/07/06 00:17:07;;;;;;;;;;;;;;;16.70;54.89;101032.34;4163620;28;20019;-66
2023/07/06 00:19:10;;;;;;;;;;;;;;;16.66;55.15;101034.66;4162852;28;20478;-66
2023/07/06 00:21:12;;;;;;;;;;;;;;;16.62;55.38;101038.03;4162842;28;20024;-66
2023/07/06 00:23:14;;;;;;;;;;;;;;;16.57;55.30;101041.38;4163184;28;20027;-66
2023/07/06 00:25:16;;;;;;;;;;;;;;;16.52;55.65;101038.41;4162740;28;20021;-66
2023/07/06 00:27:18;;;;;;;;;;;;;;;16.45;55.78;101035.69;4164240;28;20007;-66
2023/07/06 00:29:20;;;;;;;;;;;;;;;16.39;55.98;101040.13;4162658;28;20346;-66
2023/07/06 00:31:32;;;;;;;;;;;;;;;16.36;56.28;101036.94;4161730;28;20032;-65
2023/07/06 00:33:34;;;;;;;;;;;;;;;16.30;56.23;101043.22;4162103;28;20463;-66
2023/07/06 00:35:37;;;;;;;;;;;;;;;16.23;56.58;101040.50;4162755;28;20024;-66
2023/07/06 00:37:39;;;;;;;;;;;;;;;16.17;56.79;101047.59;4163252;28;20036;-66
2023/07/06 00:39:40;;;;;;;386.13;122.95;;;;;;;16.17;56.89;101035.88;4159667;28;25033;-66
2023/07/06 00:41:43;;;;;;;363.17;107.57;;;;;;;16.19;56.67;101045.53;4162668;28;20756;-66
2023/07/06 00:43:50;;;;;;;180.83;58.20;;;;;;;16.20;56.75;101044.47;4161561;28;21069;-65
2023/07/06 00:45:57;;;;;;;365.93;107.53;;;;;;;16.22;57.23;101055.16;4160898;28;21278;-65
2023/07/06 00:47:59;;;;;;;364.63;107.27;;;;;;;16.17;57.23;101055.78;4161688;28;20726;-66
2023/07/06 00:50:07;;;;;;;363.97;106.57;;;;;;;16.11;57.31;101058.50;4143859;28;20750;-66
2023/07/06 00:52:11;;;;;;;367.50;107.93;;;;;;;16.06;56.76;101055.56;4162101;28;21312;-66
2023/07/06 00:54:16;;;;;;;369.37;113.53;;;;;;;16.01;56.98;101058.91;4162098;28;20729;-66
2023/07/06 00:56:23;;;;;;;366.00;105.37;;;;;;;15.97;57.71;101058.47;4160570;28;20728;-66
2023/07/06 00:58:27;;;;;;;367.77;106.47;;;;;;;15.94;57.75;101061.59;4161937;28;20721;-66
2023/07/06 01:00:30;;;;;;;372.57;108.40;;;;;;;15.90;58.07;101062.22;4159238;28;20640;-66
2023/07/06 01:02:33;;;;;;;269.20;78.80;;;;;;;15.83;58.24;101068.47;4161743;28;20749;-66
2023/07/06 01:04:35;;;;;;;272.43;79.13;;;;;;;15.80;58.75;101071.63;4161443;28;20746;-67
2023/07/06 01:06:40;;;;;;;371.13;109.07;;;;;;;15.84;58.83;101077.47;4161458;28;21341;-67
2023/07/06 01:08:46;;;;;;;369.83;106.90;;;;;;;15.89;58.89;101071.44;4160603;28;20721;-67
2023/07/06 01:10:48;;;;;;;369.00;108.27;;;;;;;15.88;58.81;101072.47;4143354;28;21363;-66
2023/07/06 01:12:50;;;;;;;370.30;108.53;;;;;;;15.86;58.53;101069.94;4162120;28;20718;-65
2023/07/06 01:14:53;;;;;;;368.47;106.17;;;;;;;15.84;58.99;101067.41;4160990;28;20733;-67
2023/07/06 01:17:01;;;;;;;366.90;103.60;;;;;;;15.83;58.86;101073.94;4144104;28;20729;-66
2023/07/06 01:19:11;;;;;;;370.93;106.40;;;;;;;15.85;59.06;101066.38;4161112;28;20725;-65
2023/07/06 01:21:18;;;;;;;370.43;108.23;;;;;;;15.90;59.14;101068.50;4161810;28;20654;-66
2023/07/06 01:23:58;;;;;;;367.70;103.60;;;;;;;15.92;58.51;101074.56;4161283;28;20745;-66
2023/07/06 01:26:13;;;;;;;370.70;105.03;;;;;;;15.87;58.26;101070.81;4124067;28;20744;-66
2023/07/06 01:28:32;;;;;;;367.40;100.37;;;;;;;15.79;57.78;101071.81;4160115;28;20734;-66
2023/07/06 01:30:58;;;;;;;374.93;108.90;;;;;;;15.71;57.88;101069.25;4161312;28;20681;-66
2023/07/06 01:33:04;;;;;;;372.67;107.33;;;;;;;15.69;58.47;101066.72;4161420;28;20725;-66
2023/07/06 01:35:12;;;;;;;369.57;102.73;;;;;;;15.69;58.41;101072.16;4136052;28;20719;-66
2023/07/06 01:37:17;;;;;;;368.97;105.20;;;;;;;15.62;58.85;101066.66;4159359;28;20716;-64
2023/07/06 01:39:21;;;;;;;270.73;77.13;;;;;;;15.57;59.23;101065.63;4161235;28;20753;-66
2023/07/06 01:41:27;;;;;;;374.67;112.67;;;;;;;15.52;59.51;101063.50;4161112;28;20729;-67
2023/07/06 01:43:29;;;;;;;374.10;110.93;;;;;;;15.52;59.71;101063.50;4143863;28;20687;-66
2023/07/06 01:45:32;;;;;;;369.03;104.77;;;;;;;15.50;59.51;101074.59;4161026;28;21196;-66
2023/07/06 01:47:38;;;;;;;369.60;103.33;;;;;;;15.47;59.58;101077.72;4161445;28;20738;-66
2023/07/06 01:49:42;;;;;;;372.90;111.23;;;;;;;15.42;59.37;101077.47;4160638;28;20713;-66
2023/07/06 01:51:52;;;;;;;370.53;105.37;;;;;;;15.39;59.73;101075.16;4161303;28;20757;-66
2023/07/06 01:53:59;;;;;;;372.60;107.23;;;;;;;15.38;59.36;101075.38;4160939;28;20654;-66
2023/07/06 01:56:05;;;;;;;374.00;107.63;;;;;;;15.39;59.43;101079.75;4160623;28;21333;-66
2023/07/06 01:58:23;;;;;;;374.23;110.23;;;;;;;15.37;59.35;101077.22;4160464;28;20714;-66
2023/07/06 02:00:26;;;;;;;378.80;114.90;;;;;;;15.36;59.78;101072.84;4158962;28;21117;-66
2023/07/06 02:02:30;;;;;;;373.97;111.33;;;;;;;15.39;60.00;101074.31;4161228;28;20762;-66
2023/07/06 02:04:35;;;;;;;373.70;111.43;;;;;;;15.38;60.03;101078.91;4143375;28;21299;-66
2023/07/06 02:06:39;;;;;;;377.30;117.43;;;;;;;15.38;59.90;101086.25;4160835;28;21251;-66
2023/07/06 02:08:42;;;;;;;372.30;110.80;;;;;;;15.34;59.87;101077.63;4161432;28;20757;-66
2023/07/06 02:10:44;;;;;;;376.77;113.03;;;;;;;15.34;59.68;101084.97;4142626;28;20771;-66
2023/07/06 02:12:49;;;;;;;377.80;115.07;;;;;;;15.32;59.72;101090.59;4134741;28;20718;-66
2023/07/06 02:14:53;;;;;;;373.87;111.57;;;;;;;15.27;59.85;101093.91;4160617;28;20769;-65
2023/07/06 02:16:55;;;;;;;374.87;112.53;;;;;;;15.22;60.40;101096.41;4142904;28;20706;-66
2023/07/06 02:19:00;;;;;;;373.30;109.20;;;;;;;15.16;60.36;101094.47;4160912;28;21063;-66
2023/07/06 02:21:02;;;;;;;370.50;106.13;;;;;;;15.11;60.10;101099.69;4160774;28;20768;-66
2023/07/06 02:23:07;;;;;;;370.50;106.17;;;;;;;15.08;60.58;101110.97;4161121;28;20638;-66
2023/07/06 02:25:10;;;;;;;370.23;106.17;;;;;;;15.05;60.58;101109.47;4135033;28;20738;-66
2023/07/06 02:27:12;;;;;;;370.07;105.43;;;;;;;15.02;60.63;101109.84;4161444;28;20716;-66
2023/07/06 02:29:16;;;;;;;371.73;106.43;;;;;;;15.02;60.78;101104.41;4160350;28;21047;-66
2023/07/06 02:31:19;;;;;;;372.97;109.73;;;;;;;15.00;60.70;101097.47;4134987;28;20687;-66
2023/07/06 02:33:22;;;;;;;370.27;105.83;;;;;;;14.98;60.69;101099.56;4159062;28;20781;-66
2023/07/06 02:35:24;;;;;;;370.83;103.80;;;;;;;14.95;60.66;101107.09;4158884;28;20741;-65
2023/07/06 02:37:26;;;;;;;372.80;109.03;;;;;;;14.95;60.85;101101.66;4142871;28;21176;-66
2023/07/06 02:39:30;;;;;;;374.03;106.20;;;;;;;14.95;60.99;101096.22;4160299;28;20752;-66
2023/07/06 02:41:35;;;;;;;370.87;105.73;;;;;;;14.98;60.71;101097.69;4142493;28;20745;-67
2023/07/06 02:43:38;;;;;;;372.20;107.93;;;;;;;14.96;60.75;101089.72;4159724;28;20701;-66
2023/07/06 02:45:40;;;;;;;373.73;108.73;;;;;;;14.92;60.92;101093.88;4160208;28;20749;-65
2023/07/06 02:47:42;;;;;;;370.53;101.90;;;;;;;14.88;61.27;101092.59;4160906;28;20722;-65
2023/07/06 02:49:44;;;;;;;374.30;104.90;;;;;;;14.86;61.12;101096.53;4142305;28;20742;-66
2023/07/06 02:51:47;;;;;;;377.60;108.93;;;;;;;14.83;61.81;101094.22;4160196;28;21278;-66
2023/07/06 02:53:49;;;;;;;373.67;104.97;;;;;;;14.82;61.96;101089.81;4160459;28;20689;-66
2023/07/06 02:55:53;;;;;;;385.83;126.70;;;;;;;14.84;62.17;101101.34;4142604;28;21298;-66
2023/07/06 02:57:55;;;;;;;376.37;108.90;;;;;;;14.85;62.31;101103.03;4160401;28;20709;-65
2023/07/06 02:59:57;;;;;;;372.47;105.93;;;;;;;14.82;61.81;101098.81;4160061;28;20745;-66
2023/07/06 03:02:00;;;;;;;373.80;107.93;;;;;;;14.85;62.42;101100.31;4143552;28;20778;-66
2023/07/06 03:04:09;;;;;;;374.63;109.93;;;;;;;14.86;62.10;101102.84;4161786;28;20662;-66
2023/07/06 03:06:12;;;;;;;375.83;109.37;;;;;;;14.90;61.98;101103.28;4163089;28;21504;-66
2023/07/06 03:08:15;;;;;;;372.73;106.30;;;;;;;14.89;61.96;101102.44;4164043;28;20721;-66
2023/07/06 03:10:19;;;;;;;373.30;105.40;;;;;;;14.86;62.27;101099.25;4162004;28;20721;-67
2023/07/06 03:12:23;;;;;;;372.27;106.33;;;;;;;14.84;62.17;101101.34;4145743;28;21057;-66
2023/07/06 03:14:26;;;;;;;372.23;104.93;;;;;;;14.83;62.48;101103.22;4163312;28;20761;-65
2023/07/06 03:16:28;;;;;;;370.80;100.20;;;;;;;14.84;62.02;101104.06;4146368;28;20734;-67
2023/07/06 03:18:31;;;;;;;372.00;102.90;;;;;;;14.83;62.16;101110.53;4164067;28;20708;-66
2023/07/06 03:20:36;;;;;;;374.77;105.40;;;;;;;14.80;62.03;101114.50;4162516;28;20749;-66
2023/07/06 03:22:38;;;;;;;374.93;104.70;;;;;;;14.77;62.32;101115.72;4163637;28;20709;-67
2023/07/06 03:24:40;;;;;;;375.10;103.47;;;;;;;14.76;62.40;101121.34;4144969;28;20649;-66
2023/07/06 03:26:43;;;;;;;376.80;106.57;;;;;;;14.73;62.81;101114.44;4145980;28;20734;-67
2023/07/06 03:28:47;;;;;;;377.70;104.93;;;;;;;14.71;63.00;101121.09;4163754;28;21375;-66
2023/07/06 03:30:55;;;;;;;274.73;75.13;;;;;;;14.70;63.15;101120.28;4144811;28;20754;-66
2023/07/06 03:32:58;;;;;;;375.80;103.67;;;;;;;14.72;62.89;101123.63;4162967;28;21242;-66
2023/07/06 03:35:01;;;;;;;378.00;104.00;;;;;;;14.71;62.75;101126.53;4161778;28;20773;-66
2023/07/06 03:37:04;;;;;;;378.27;105.10;;;;;;;14.67;63.20;101127.94;4144795;28;20731;-66
2023/07/06 03:39:11;;;;;;;274.10;75.33;;;;;;;14.61;63.42;101126.88;4162402;28;20716;-66
2023/07/06 03:41:13;;;;;;;375.13;102.40;;;;;;;14.58;63.54;101130.78;4145644;28;21366;-64
2023/07/06 03:43:16;;;;;;;275.73;75.63;;;;;;;14.57;63.59;101131.81;4163619;28;20713;-66
2023/07/06 03:45:19;;;;;;;379.37;110.43;;;;;;;14.59;63.48;101131.59;4160601;28;20638;-66
2023/07/06 03:47:23;;;;;;;375.40;103.10;;;;;;;14.59;63.12;101137.03;4145221;28;20804;-66
2023/07/06 03:49:25;;;;;;;377.57;106.53;;;;;;;14.59;63.35;101142.47;4162899;28;21298;-66
2023/07/06 03:51:28;;;;;;;376.87;104.73;;;;;;;14.57;63.08;101141.84;4163442;28;20845;-66
2023/07/06 03:53:30;;;;;;;376.27;106.47;;;;;;;14.55;63.32;101152.91;4164396;28;20709;-66
2023/07/06 03:55:32;;;;;;;384.30;115.80;;;;;;;14.55;63.74;101152.06;4162311;28;21084;-66
2023/07/06 03:57:35;;;;;;;370.33;101.77;;;;;;;14.56;63.65;101159.19;4163006;28;20713;-65
2023/07/06 03:59:38;;;;;;;372.17;102.20;;;;;;;14.56;64.06;101154.59;4162738;28;20781;-67
2023/07/06 04:01:42;;;;;;;372.93;103.20;;;;;;;14.58;63.83;101154.41;4162833;28;20732;-65
2023/07/06 04:03:45;;;;;;;375.80;104.60;;;;;;;14.59;64.11;101145.19;4162747;28;22361;-65
2023/07/06 04:05:48;;;;;;;372.13;103.07;;;;;;;14.59;64.21;101151.50;4162287;28;20688;-66
2023/07/06 04:07:52;;;;;;;374.30;102.87;;;;;;;14.61;63.93;101140.47;4162734;28;20705;-67
2023/07/06 04:09:54;;;;;;;375.40;101.43;;;;;;;14.63;64.18;101138.38;4162146;28;20732;-65
2023/07/06 04:11:57;;;;;;;376.47;105.77;;;;;;;14.65;64.23;101144.47;4162190;28;20741;-66
2023/07/06 04:14:00;;;;;;;378.73;107.40;;;;;;;14.68;64.61;101141.34;4161567;28;21318;-66
2023/07/06 04:16:02;;;;;;;376.17;104.70;;;;;;;14.70;64.51;101144.75;4162805;28;20696;-65
2023/07/06 04:18:06;;;;;;;374.50;109.00;;;;;;;14.70;63.97;101149.31;4162908;28;20809;-66
2023/07/06 04:20:18;;;;;;;367.73;101.73;;;;;;;14.64;64.09;101140.06;4161481;28;20732;-65
2023/07/06 04:22:20;;;;;;;368.70;103.47;;;;;;;14.74;64.19;101153.34;4162335;28;20745;-65
2023/07/06 04:24:25;;;;;;;369.33;102.37;;;;;;;14.75;64.19;101152.31;4162870;28;20737;-66
2023/07/06 04:26:27;;;;;;;370.83;102.20;;;;;;;14.78;64.24;101168.25;4162056;28;21167;-66
2023/07/06 04:28:30;;;;;;;370.20;102.17;;;;;;;14.79;64.35;101159.03;4162760;28;21020;-67
2023/07/06 04:30:33;;;;;;;373.53;106.60;;;;;;;14.84;63.83;101158.44;4160825;28;20777;-66
2023/07/06 04:32:36;;;;;;;374.70;105.03;;;;;;;14.84;63.67;101161.16;4162260;28;20714;-66
2023/07/06 04:34:40;;;;;;;372.90;103.10;;;;;;;14.85;64.07;101162.84;4162216;28;20745;-66
2023/07/06 04:36:42;;;;;;;375.93;107.50;;;;;;;14.85;63.96;101168.28;4162142;28;21048;-66
2023/07/06 04:38:44;;;;;;;271.93;76.20;;;;;;;14.86;64.23;101164.50;4162441;28;20706;-66
2023/07/06 04:40:47;;;;;;;379.33;117.20;;;;;;;14.87;64.62;101174.38;4161361;28;21093;-66
2023/07/06 04:42:51;;;;;;;371.60;103.37;;;;;;;14.84;64.91;101170.16;4162382;28;21054;-66
2023/07/06 04:44:53;;;;;;;375.17;107.73;;;;;;;14.88;64.87;101179.63;4160169;28;20737;-66
2023/07/06 04:46:59;;;;;;;374.67;105.63;;;;;;;14.91;65.04;101181.94;4161816;28;20618;-66
2023/07/06 04:49:01;;;;;;;377.50;109.17;;;;;;;14.95;65.24;101179.66;4161095;28;20824;-66
2023/07/06 04:51:05;;;;;;;378.07;108.33;;;;;;;14.99;65.38;101180.13;4161860;28;20746;-66
2023/07/06 04:53:09;;;;;;;374.03;103.87;;;;;;;15.03;65.50;101190.44;4162418;28;20733;-66
2023/07/06 04:55:11;;;;;;;375.27;106.23;;;;;;;15.07;65.26;101196.31;4161659;28;21282;-66
2023/07/06 04:57:14;;;;;;;378.63;110.13;;;;;;;15.10;65.44;101187.75;4162459;28;21458;-65
2023/07/06 04:59:17;;;;;;;375.33;104.03;;;;;;;15.12;65.56;101191.97;4161988;28;20736;-66
2023/07/06 05:01:19;;;;;;;378.00;114.97;;;;;;;15.20;65.60;101187.41;4161914;28;20745;-64
2023/07/06 05:03:22;;;;;;;377.43;109.83;;;;;;;15.24;66.12;101189.56;4161428;28;20697;-65
2023/07/06 05:05:26;;;;;;;375.50;105.73;;;;;;;15.29;65.38;101191.69;4161629;28;20737;-66
2023/07/06 05:07:30;;;;;;;372.17;101.77;;;;;;;15.35;65.79;101190.91;4161331;28;21144;-66
2023/07/06 05:09:33;;;;;;;377.13;106.20;;;;;;;15.41;65.49;101187.38;4161196;28;20716;-66
2023/07/06 05:11:35;;;;;;;373.53;101.43;;;;;;;15.45;64.97;101195.97;4162062;28;21074;-65
2023/07/06 05:13:38;;;;;;;375.97;106.93;;;;;;;15.49;65.20;101189.13;4162194;28;20721;-67
2023/07/06 05:15:40;;;;;;;277.07;80.27;;;;;;;15.55;64.82;101191.03;4161211;28;20728;-65
2023/07/06 05:17:42;;;;;;;374.47;104.40;;;;;;;15.60;64.47;101193.16;4161100;28;20730;-65
2023/07/06 05:19:45;;;;;;;379.30;114.97;;;;;;;15.62;64.87;101194.63;4160416;28;21076;-65
2023/07/06 05:21:48;;;;;;;366.20;106.77;;;;;;;15.64;65.35;101189.84;4144069;28;20753;-66
2023/07/06 05:23:51;;;;;;;366.93;110.77;;;;;;;15.69;65.35;101194.69;4161773;28;20713;-65
2023/07/06 05:25:54;;;;;;;366.87;110.27;;;;;;;15.75;65.00;101195.75;4159837;28;20742;-66
2023/07/06 05:27:57;;;;;;;365.97;110.97;;;;;;;15.77;65.32;101194.56;4160541;28;21270;-66
2023/07/06 05:29:59;;;;;;;366.23;107.97;;;;;;;15.88;64.70;101200.47;4160908;28;21065;-66
2023/07/06 05:32:01;;;;;;;366.77;109.07;;;;;;;15.91;64.76;101200.06;4161789;28;20736;-65
2023/07/06 05:34:03;;;;;;;370.03;119.23;;;;;;;15.96;64.81;101197.59;4160465;28;20723;-68
2023/07/06 05:36:06;;;;;;;370.37;117.30;;;;;;;15.98;64.58;101203.69;4160432;28;20713;-65
2023/07/06 05:38:10;;;;;;;373.13;123.53;;;;;;;16.06;64.49;101202.69;4161418;28;20710;-65
2023/07/06 05:40:13;;;;;;;364.43;112.53;;;;;;;16.11;64.38;101202.91;4159703;28;20737;-65
2023/07/06 05:42:17;;;;;;;361.43;106.33;;;;;;;16.15;64.21;101201.47;4161594;28;20706;-66
2023/07/06 05:44:19;;;;;;;364.57;110.00;;;;;;;16.24;64.03;101205.72;4160757;28;20767;-65
2023/07/06 05:46:23;;;;;;;365.77;113.70;;;;;;;16.27;63.84;101205.31;4159141;28;20703;-67
2023/07/06 05:48:25;;;;;;;364.17;111.70;;;;;;;16.31;63.54;101222.91;4161554;28;21207;-66
2023/07/06 05:50:27;;;;;;;367.73;116.37;;;;;;;16.34;63.59;101225.22;4160500;28;20721;-65
2023/07/06 05:52:29;;;;;;;366.73;112.67;;;;;;;16.38;63.87;101226.50;4162029;28;20713;-65
2023/07/06 05:54:32;;;;;;;371.13;110.10;;;;;;;16.42;63.62;101229.66;4159910;28;21071;-66
2023/07/06 05:56:37;;;;;;;373.30;113.37;;;;;;;16.47;63.59;101232.59;4161353;28;20725;-66
2023/07/06 05:58:40;;;;;;;372.63;111.50;;;;;;;16.48;63.40;101239.75;4161491;28;20717;-65
2023/07/06 06:00:42;;;;;;;370.43;108.87;;;;;;;16.50;63.70;101237.66;4160904;28;20737;-66
2023/07/06 06:02:44;;;;;;;375.00;113.13;;;;;;;16.55;63.64;101245.22;4160437;28;20714;-67
2023/07/06 06:04:47;;;;;;;374.23;115.20;;;;;;;16.55;63.70;101240.63;4160717;28;20744;-66
2023/07/06 06:06:52;;;;;;;375.63;115.97;;;;;;;16.61;63.64;101244.41;4161150;28;21247;-65
2023/07/06 06:08:54;;;;;;;376.23;116.63;;;;;;;16.63;63.39;101233.28;4160898;28;20636;-65
2023/07/06 06:10:57;;;;;;;372.47;116.17;;;;;;;16.64;63.65;101232.25;4159896;28;20734;-65
2023/07/06 06:13:00;;;;;;;372.63;114.17;;;;;;;16.69;63.73;101232.47;4160786;28;20789;-66
2023/07/06 06:15:03;;;;;;;373.97;113.93;;;;;;;16.73;63.35;101236.50;4160984;28;20745;-65
2023/07/06 06:17:06;;;;;;;376.53;119.53;;;;;;;16.74;63.39;101233.56;4161383;28;21186;-65
2023/07/06 06:19:08;;;;;;;377.07;115.77;;;;;;;16.82;63.23;101239.84;4158097;28;20753;-66
2023/07/06 06:21:10;;;;;;;379.83;120.27;;;;;;;16.86;63.10;101241.16;4159005;28;20765;-66
2023/07/06 06:23:13;;;;;;;370.53;111.33;;;;;;;16.90;62.93;101240.53;4159159;28;21234;-65
2023/07/06 06:25:15;;;;;;;376.17;119.07;;;;;;;16.93;62.50;101233.84;4159628;28;20749;-66
2023/07/06 06:27:19;;;;;;;387.37;133.70;;;;;;;16.96;62.09;101238.88;4159927;28;20713;-66
2023/07/06 06:29:23;;;;;;;376.63;116.43;;;;;;;16.99;62.10;101245.78;4160173;28;21397;-65
2023/07/06 06:31:27;;;;;;;377.83;119.17;;;;;;;17.01;62.32;101247.28;4160870;28;20744;-65
2023/07/06 06:33:29;;;;;;;376.63;115.93;;;;;;;17.03;61.84;101247.91;4160725;28;20744;-65
2023/07/06 06:35:33;;;;;;;380.43;118.97;;;;;;;17.05;61.93;101255.88;4160370;28;21063;-67
2023/07/06 06:37:37;;;;;;;379.87;120.73;;;;;;;17.08;61.59;101247.28;4162769;28;20705;-65
2023/07/06 06:39:40;;;;;;;380.63;121.83;;;;;;;17.10;61.34;101256.94;4163812;28;20752;-65
2023/07/06 06:41:43;;;;;;;375.80;114.83;;;;;;;17.15;61.64;101255.47;4164053;28;21354;-64
2023/07/06 06:43:46;;;;;;;379.70;121.57;;;;;;;17.16;61.52;101258.00;4163878;28;20705;-65
2023/07/06 06:45:49;;;;;;;380.60;123.83;;;;;;;17.20;61.29;101253.81;4163410;28;21326;-65
2023/07/06 06:47:52;;;;;;;379.90;119.03;;;;;;;17.23;60.97;101253.38;4146234;28;20749;-64
2023/07/06 06:49:54;;;;;;;381.87;121.33;;;;;;;17.27;60.54;101262.00;4159175;28;20733;-64
2023/07/06 06:51:56;;;;;;;384.27;126.43;;;;;;;17.28;60.29;101256.31;4159838;28;20741;-65
2023/07/06 06:53:58;;;;;;;383.77;126.37;;;;;;;17.31;59.98;101251.53;4159867;28;20729;-66
2023/07/06 06:56:02;;;;;;;383.00;124.37;;;;;;;17.34;59.74;101256.56;4159285;28;20721;-69
2023/07/06 06:58:05;;;;;;;381.27;123.97;;;;;;;17.38;59.51;101253.22;4144322;28;20922;-74
2023/07/06 07:00:16;;;;;;;382.07;124.03;;;;;;;17.41;59.49;101252.78;4161673;28;20713;-71
2023/07/06 07:02:22;;;;;;;380.23;124.40;;;;;;;17.45;59.35;101256.75;4142633;28;20634;-72
2023/07/06 07:04:24;;;;;;;379.47;122.47;;;;;;;17.49;59.00;101251.72;4163872;28;20717;-73
2023/07/06 07:06:30;;;;;;;381.07;123.23;;;;;;;17.52;58.86;101245.81;4164277;28;20756;-74
2023/07/06 07:08:33;;;;;;;382.23;124.70;;;;;;;17.59;58.84;101260.31;4163079;28;20725;-72
2023/07/06 07:10:35;;;;;;;380.30;119.67;;;;;;;17.63;58.44;101261.59;4163305;28;20642;-74
2023/07/06 07:12:38;;;;;;;379.20;123.37;;;;;;;17.67;58.00;101267.47;4145358;28;20970;-75
2023/07/06 07:14:41;;;;;;;381.13;130.40;;;;;;;17.70;58.00;101263.47;4162956;28;21047;-74
2023/07/06 07:16:46;;;;;;;376.30;122.27;;;;;;;17.70;57.90;101256.13;4163957;28;20709;-73
2023/07/06 07:18:54;;;;;;;378.17;125.13;;;;;;;17.72;58.00;101262.19;4147378;28;20737;-76
2023/07/06 07:21:01;;;;;;;378.67;123.07;;;;;;;17.77;57.88;101272.50;4163500;28;20744;-71
2023/07/06 07:23:06;;;;;;;375.40;124.60;;;;;;;17.81;57.56;101269.13;4147333;28;20726;-75
2023/07/06 07:25:09;;;;;;;376.57;128.63;;;;;;;17.86;57.46;101273.13;4162299;28;20725;-74
2023/07/06 07:27:12;;;;;;;381.33;139.97;;;;;;;17.88;56.99;101271.88;4147051;28;20839;-72
2023/07/06 07:29:16;;;;;;;378.90;127.93;;;;;;;17.92;56.96;101278.59;4164443;28;20705;-72
2023/07/06 07:31:20;;;;;;;376.17;124.43;;;;;;;17.94;56.83;101281.13;4146517;28;20712;-72
2023/07/06 07:33:22;;;;;;;371.63;121.83;;;;;;;17.96;56.00;101277.13;4163705;28;20689;-73
2023/07/06 07:35:27;;;;;;;375.00;125.17;;;;;;;17.98;56.18;101279.66;4163991;28;20754;-73
2023/07/06 07:37:32;;;;;;;367.50;117.17;;;;;;;18.01;56.02;101281.97;4163617;28;20652;-74
2023/07/06 07:39:34;;;;;;;378.00;131.43;;;;;;;18.04;55.96;101281.53;4145851;28;21126;-73
2023/07/06 07:41:36;;;;;;;375.37;130.67;;;;;;;18.10;56.00;101279.81;4164339;28;20745;-73
2023/07/06 07:43:41;;;;;;;376.20;133.83;;;;;;;18.12;55.64;101277.72;4162408;28;20713;-73
2023/07/06 07:45:47;;;;;;;373.03;130.70;;;;;;;18.16;55.45;101284.44;4138566;28;20758;-72
2023/07/06 07:47:56;;;;;;;372.07;128.47;;;;;;;18.17;55.66;101276.03;4164667;28;21242;-72
2023/07/06 07:49:58;;;;;;;376.43;136.63;;;;;;;18.22;55.57;101289.06;4168000;28;20654;-72
2023/07/06 07:52:01;;;;;;;374.03;128.17;;;;;;;18.24;55.34;101295.13;4168641;28;20676;-72
2023/07/06 07:54:04;;;;;;;373.67;133.33;;;;;;;18.25;54.89;101291.34;4149426;28;20650;-72
2023/07/06 07:56:07;;;;;;;377.77;138.30;;;;;;;18.28;54.99;101290.94;4147402;28;20685;-73
2023/07/06 07:58:09;;;;;;;369.70;126.47;;;;;;;18.32;55.01;101288.59;4154222;28;20761;-73
2023/07/06 08:00:12;;;;;;;376.17;127.77;;;;;;;18.37;54.91;101297.00;4162841;28;20726;-73
2023/07/06 08:02:17;;;;;;;372.57;127.97;;;;;;;18.40;54.90;101293.00;4163798;28;20694;-69
2023/07/06 08:04:21;;;;;;;373.47;133.17;;;;;;;18.39;54.44;101285.88;4153336;28;20751;-74
2023/07/06 08:06:24;;;;;;;377.23;137.47;;;;;;;18.43;54.32;101292.56;4163301;28;20745;-71
2023/07/06 08:08:28;;;;;;;378.60;138.37;;;;;;;18.46;54.37;101292.97;4162706;28;20701;-72
2023/07/06 08:10:30;;;;;;;377.53;133.63;;;;;;;18.48;53.71;101296.34;4137670;28;21550;-72
2023/07/06 08:12:32;;;;;;;373.20;128.37;;;;;;;18.49;53.66;101299.91;4144843;28;20626;-70
2023/07/06 08:14:37;;;;;;;372.23;125.67;;;;;;;18.46;53.12;101287.50;4163037;28;20718;-75
2023/07/06 08:16:40;;;;;;;375.73;134.87;;;;;;;18.50;53.70;101293.38;4153294;28;20713;-73
2023/07/06 08:18:43;;;;;;;375.47;134.97;;;;;;;18.53;53.88;101295.69;4163339;28;20704;-74
2023/07/06 08:20:46;;;;;;;375.50;135.13;;;;;;;18.56;54.02;101295.25;4162486;28;21302;-74
2023/07/06 08:22:49;;;;;;;373.83;135.17;;;;;;;18.58;53.97;101298.59;4163367;28;20638;-72
2023/07/06 08:24:53;;;;;;;377.93;136.03;;;;;;;18.60;54.10;101293.75;4144146;28;20730;-71
2023/07/06 08:26:55;;;;;;;377.83;129.17;;;;;;;18.64;54.09;101289.53;4163038;28;21306;-74
2023/07/06 08:28:58;;;;;;;381.93;138.63;;;;;;;18.67;53.98;101299.22;4162618;28;20717;-72
2023/07/06 08:31:02;;;;;;;378.33;136.83;;;;;;;18.70;53.62;101302.34;4162439;28;20792;-69
2023/07/06 08:33:06;;;;;;;375.97;134.30;;;;;;;18.70;53.45;101302.34;4162929;28;21052;-67
2023/07/06 08:35:10;;;;;;;379.70;136.20;;;;;;;18.70;53.30;101299.63;4162389;28;20642;-67
2023/07/06 08:37:12;;;;;;;380.33;137.23;;;;;;;18.71;53.32;101294.97;4163469;28;20630;-68
2023/07/06 08:39:14;;;;;;;378.73;132.80;;;;;;;18.74;53.05;101291.81;4161873;28;20701;-66
2023/07/06 08:41:29;;;;;;;379.63;133.10;;;;;;;18.78;53.29;101294.94;4162549;28;21302;-66
2023/07/06 08:43:32;;;;;;;381.20;130.23;;;;;;;18.81;53.00;101310.91;4162670;28;20717;-66
2023/07/06 08:45:39;;;;;;;381.27;130.33;;;;;;;18.84;52.89;101305.91;4162160;28;20738;-68
2023/07/06 08:47:41;;;;;;;385.37;141.67;;;;;;;18.85;52.74;101306.72;4161743;28;20764;-68
2023/07/06 08:49:44;;;;;;;382.13;132.67;;;;;;;18.83;52.60;101309.66;4143874;28;20666;-68
2023/07/06 08:51:47;;;;;;;383.73;135.60;;;;;;;18.82;52.64;101313.44;4162337;28;20749;-68
2023/07/06 08:53:52;;;;;;;379.47;135.50;;;;;;;18.83;52.75;101303.34;4162385;28;20626;-68
2023/07/06 08:55:55;;;;;;;381.83;138.17;;;;;;;18.88;52.75;101306.28;4162228;28;20737;-67
2023/07/06 08:58:03;;;;;;;381.50;133.50;;;;;;;18.91;52.78;101303.13;4162338;28;20709;-68
2023/07/06 09:00:19;;;;;;;382.47;141.77;;;;;;;18.93;52.71;101301.00;4160605;28;20741;-68
2023/07/06 09:02:22;;;;;;;381.30;135.50;;;;;;;18.94;52.84;101310.88;4162559;28;20713;-68
2023/07/06 09:04:24;;;;;;;382.23;139.70;;;;;;;18.97;52.69;101315.09;4161884;28;20729;-67
2023/07/06 09:06:28;;;;;;;381.50;142.83;;;;;;;18.99;52.88;101324.75;4161244;28;20721;-67
2023/07/06 09:08:30;;;;;;;381.10;144.30;;;;;;;19.02;52.12;101321.56;4161771;28;20714;-67
2023/07/06 09:10:34;;;;;;;379.13;137.10;;;;;;;19.06;52.38;101322.00;4161731;28;20729;-67
2023/07/06 09:12:39;;;;;;;380.13;138.43;;;;;;;19.06;52.35;101320.09;4162127;28;20706;-68
2023/07/06 09:14:43;;;;;;;383.63;141.63;;;;;;;19.09;52.39;101319.66;4161973;28;20653;-67